Armstrong, Missouri
Current Conditions -  °F | °C
As of 7:55 AM on Friday 24 Oct 2014 (Local Time) from KVER Reporting Station
Haze Haze  
Wind Chill: 59°   Ceiling: 600
Heat Index: 59°   Visibility: 4mi
Dew Point: 59°   Wind: 5mph
Humidity: 100%   Direction: 220°SW
Pressure: 30.09"   Gusts: NA
Location:  39.27°N, 92.7°W
Report Text: KVER 241255Z AUTO 22004KT 4SM BR OVC006 15/15 A3009 RMK AO2 T01490150
Loading
Personal Weather Stations






























Interactive Weather Map New forecast layout! Learn more

10-Day Weather Forecast

Advertisements
Track Severe Weather on mobile